sensor_id;sensor_type;location;lat;lon;timestamp;temperature;humidity
27741;DHT22;15134;48.768;9.184;2023-06-10T00:01:58;20.70;96.90
27741;DHT22;15134;48.768;9.184;2023-06-10T00:04:28;20.40;97.10
27741;DHT22;15134;48.768;9.184;2023-06-10T00:06:53;20.30;97.40
27741;DHT22;15134;48.768;9.184;2023-06-10T00:09:20;20.30;97.80
27741;DHT22;15134;48.768;9.184;2023-06-10T00:11:52;20.20;98.00
27741;DHT22;15134;48.768;9.184;2023-06-10T00:14:18;20.20;97.90
27741;DHT22;15134;48.768;9.184;2023-06-10T00:16:44;20.20;97.80
27741;DHT22;15134;48.768;9.184;2023-06-10T00:19:13;20.30;97.80
27741;DHT22;15134;48.768;9.184;2023-06-10T00:21:40;20.30;98.00
27741;DHT22;15134;48.768;9.184;2023-06-10T00:24:07;20.30;97.70
27741;DHT22;15134;48.768;9.184;2023-06-10T00:26:40;20.30;97.60
27741;DHT22;15134;48.768;9.184;2023-06-10T00:29:06;20.40;98.00
27741;DHT22;15134;48.768;9.184;2023-06-10T00:31:34;20.30;98.30
27741;DHT22;15134;48.768;9.184;2023-06-10T00:34:03;20.30;98.30
27741;DHT22;15134;48.768;9.184;2023-06-10T00:36:31;20.30;98.40
27741;DHT22;15134;48.768;9.184;2023-06-10T00:38:57;20.30;98.40
27741;DHT22;15134;48.768;9.184;2023-06-10T00:41:26;20.30;98.60
27741;DHT22;15134;48.768;9.184;2023-06-10T00:43:52;20.30;98.80
27741;DHT22;15134;48.768;9.184;2023-06-10T00:46:18;20.30;98.80
27741;DHT22;15134;48.768;9.184;2023-06-10T00:48:50;20.30;98.90
27741;DHT22;15134;48.768;9.184;2023-06-10T00:51:22;20.30;99.00
27741;DHT22;15134;48.768;9.184;2023-06-10T00:53:52;20.20;99.00
27741;DHT22;15134;48.768;9.184;2023-06-10T00:56:19;20.20;99.10
27741;DHT22;15134;48.768;9.184;2023-06-10T00:58:48;20.20;99.30
27741;DHT22;15134;48.768;9.184;2023-06-10T01:01:14;20.20;99.40
27741;DHT22;15134;48.768;9.184;2023-06-10T01:03:40;20.10;99.50
27741;DHT22;15134;48.768;9.184;2023-06-10T01:07:14;20.10;99.50
27741;DHT22;15134;48.768;9.184;2023-06-10T01:14:29;20.10;99.90
27741;DHT22;15134;48.768;9.184;2023-06-10T01:16:57;20.10;99.90
27741;DHT22;15134;48.768;9.184;2023-06-10T01:19:23;20.00;99.90
27741;DHT22;15134;48.768;9.184;2023-06-10T01:21:50;20.00;99.90
27741;DHT22;15134;48.768;9.184;2023-06-10T01:24:18;20.00;99.90
27741;DHT22;15134;48.768;9.184;2023-06-10T01:26:48;19.90;99.90
27741;DHT22;15134;48.768;9.184;2023-06-10T01:29:26;19.70;99.90
27741;DHT22;15134;48.768;9.184;2023-06-10T01:32:05;19.60;99.90
27741;DHT22;15134;48.768;9.184;2023-06-10T01:34:33;19.60;99.90
27741;DHT22;15134;48.768;9.184;2023-06-10T01:37:00;19.60;99.90
27741;DHT22;15134;48.768;9.184;2023-06-10T01:39:28;19.60;99.90
27741;DHT22;15134;48.768;9.184;2023-06-10T01:41:54;19.70;99.90
27741;DHT22;15134;48.768;9.184;2023-06-10T01:44:29;19.70;99.90
27741;DHT22;15134;48.768;9.184;2023-06-10T01:47:01;19.70;99.90
27741;DHT22;15134;48.768;9.184;2023-06-10T01:49:27;19.70;99.90
27741;DHT22;15134;48.768;9.184;2023-06-10T01:51:54;19.70;99.90
27741;DHT22;15134;48.768;9.184;2023-06-10T01:54:25;19.70;99.90
27741;DHT22;15134;48.768;9.184;2023-06-10T01:56:51;19.60;99.90
27741;DHT22;15134;48.768;9.184;2023-06-10T01:59:17;19.60;99.90
27741;DHT22;15134;48.768;9.184;2023-06-10T02:01:43;19.60;99.90
27741;DHT22;15134;48.768;9.184;2023-06-10T02:04:09;19.60;99.90
27741;DHT22;15134;48.768;9.184;2023-06-10T02:06:35;19.50;99.90
27741;DHT22;15134;48.768;9.184;2023-06-10T02:09:03;19.50;99.90
27741;DHT22;15134;48.768;9.184;2023-06-10T02:11:29;19.60;99.90
27741;DHT22;15134;48.768;9.184;2023-06-10T02:13:54;19.50;99.90
27741;DHT22;15134;48.768;9.184;2023-06-10T02:16:20;19.50;99.90
27741;DHT22;15134;48.768;9.184;2023-06-10T02:18:46;19.40;99.90
27741;DHT22;15134;48.768;9.184;2023-06-10T02:21:12;19.50;99.90
27741;DHT22;15134;48.768;9.184;2023-06-10T02:23:38;19.40;99.90
27741;DHT22;15134;48.768;9.184;2023-06-10T02:26:09;19.40;99.90
27741;DHT22;15134;48.768;9.184;2023-06-10T02:28:35;19.50;99.90
27741;DHT22;15134;48.768;9.184;2023-06-10T02:31:04;19.40;99.90
27741;DHT22;15134;48.768;9.184;2023-06-10T02:33:30;19.40;99.90
27741;DHT22;15134;48.768;9.184;2023-06-10T02:35:56;19.30;99.90
27741;DHT22;15134;48.768;9.184;2023-06-10T02:38:24;19.30;99.90
27741;DHT22;15134;48.768;9.184;2023-06-10T02:40:51;19.30;99.90
27741;DHT22;15134;48.768;9.184;2023-06-10T02:43:17;19.30;99.90
27741;DHT22;15134;48.768;9.184;2023-06-10T02:45:43;19.10;99.90
27741;DHT22;15134;48.768;9.184;2023-06-10T02:48:10;19.10;99.90
27741;DHT22;15134;48.768;9.184;2023-06-10T02:50:36;19.10;99.90
27741;DHT22;15134;48.768;9.184;2023-06-10T02:53:15;19.10;99.90
27741;DHT22;15134;48.768;9.184;2023-06-10T02:55:45;19.10;99.90
27741;DHT22;15134;48.768;9.184;2023-06-10T02:58:14;19.10;99.90
27741;DHT22;15134;48.768;9.184;2023-06-10T03:00:40;19.10;99.90
27741;DHT22;15134;48.768;9.184;2023-06-10T03:03:08;19.10;99.90
27741;DHT22;15134;48.768;9.184;2023-06-10T03:05:43;19.10;99.90
27741;DHT22;15134;48.768;9.184;2023-06-10T03:08:09;19.10;99.90
27741;DHT22;15134;48.768;9.184;2023-06-10T03:10:38;19.10;99.90
27741;DHT22;15134;48.768;9.184;2023-06-10T03:13:04;19.10;99.90
27741;DHT22;15134;48.768;9.184;2023-06-10T03:15:30;19.10;99.90
27741;DHT22;15134;48.768;9.184;2023-06-10T03:18:00;19.10;99.90
27741;DHT22;15134;48.768;9.184;2023-06-10T03:20:28;19.00;99.90
27741;DHT22;15134;48.768;9.184;2023-06-10T03:22:54;19.00;99.90
27741;DHT22;15134;48.768;9.184;2023-06-10T03:25:20;19.00;99.90
27741;DHT22;15134;48.768;9.184;2023-06-10T03:27:49;19.00;99.90
27741;DHT22;15134;48.768;9.184;2023-06-10T03:30:16;19.00;99.90
27741;DHT22;15134;48.768;9.184;2023-06-10T03:32:45;18.90;99.90
27741;DHT22;15134;48.768;9.184;2023-06-10T03:35:17;19.00;99.90
27741;DHT22;15134;48.768;9.184;2023-06-10T03:37:45;18.90;99.90
27741;DHT22;15134;48.768;9.184;2023-06-10T03:40:11;18.90;99.90
27741;DHT22;15134;48.768;9.184;2023-06-10T03:42:39;18.90;99.90
27741;DHT22;15134;48.768;9.184;2023-06-10T03:45:07;18.90;99.90
27741;DHT22;15134;48.768;9.184;2023-06-10T03:47:35;19.00;99.90
27741;DHT22;15134;48.768;9.184;2023-06-10T03:50:03;19.00;99.90
27741;DHT22;15134;48.768;9.184;2023-06-10T03:52:30;19.00;99.90
27741;DHT22;15134;48.768;9.184;2023-06-10T03:54:56;19.00;99.90
27741;DHT22;15134;48.768;9.184;2023-06-10T03:57:22;19.00;99.90
27741;DHT22;15134;48.768;9.184;2023-06-10T03:59:48;18.80;99.90
27741;DHT22;15134;48.768;9.184;2023-06-10T04:02:13;18.70;99.90
27741;DHT22;15134;48.768;9.184;2023-06-10T04:04:39;18.80;99.90
27741;DHT22;15134;48.768;9.184;2023-06-10T04:07:05;18.80;99.90
27741;DHT22;15134;48.768;9.184;2023-06-10T04:09:31;18.90;99.90
27741;DHT22;15134;48.768;9.184;2023-06-10T04:11:57;18.80;99.90
27741;DHT22;15134;48.768;9.184;2023-06-10T04:14:24;18.80;99.90
27741;DHT22;15134;48.768;9.184;2023-06-10T04:16:50;18.80;99.90
27741;DHT22;15134;48.768;9.184;2023-06-10T04:19:17;18.90;99.90
27741;DHT22;15134;48.768;9.184;2023-06-10T04:21:43;18.90;99.90
27741;DHT22;15134;48.768;9.184;2023-06-10T04:24:09;18.90;99.90
27741;DHT22;15134;48.768;9.184;2023-06-10T04:26:36;19.00;99.90
27741;DHT22;15134;48.768;9.184;2023-06-10T04:29:05;19.10;99.90
27741;DHT22;15134;48.768;9.184;2023-06-10T04:31:31;19.00;99.90
27741;DHT22;15134;48.768;9.184;2023-06-10T04:33:58;19.00;99.90
27741;DHT22;15134;48.768;9.184;2023-06-10T04:36:24;19.10;99.90
27741;DHT22;15134;48.768;9.184;2023-06-10T04:38:50;19.10;99.90
27741;DHT22;15134;48.768;9.184;2023-06-10T04:41:18;19.20;99.90
27741;DHT22;15134;48.768;9.184;2023-06-10T04:43:45;19.20;99.90
27741;DHT22;15134;48.768;9.184;2023-06-10T04:46:11;19.10;99.90
27741;DHT22;15134;48.768;9.184;2023-06-10T04:48:39;19.20;99.90
27741;DHT22;15134;48.768;9.184;2023-06-10T04:51:05;19.20;99.90
27741;DHT22;15134;48.768;9.184;2023-06-10T04:53:31;19.30;99.90
27741;DHT22;15134;48.768;9.184;2023-06-10T04:55:57;19.50;99.90
27741;DHT22;15134;48.768;9.184;2023-06-10T04:58:23;20.00;99.90
27741;DHT22;15134;48.768;9.184;2023-06-10T05:00:49;20.40;99.90
27741;DHT22;15134;48.768;9.184;2023-06-10T05:03:15;21.00;99.90
27741;DHT22;15134;48.768;9.184;2023-06-10T05:05:41;21.40;99.90
27741;DHT22;15134;48.768;9.184;2023-06-10T05:08:09;21.80;99.90
27741;DHT22;15134;48.768;9.184;2023-06-10T05:10:35;22.20;99.90
27741;DHT22;15134;48.768;9.184;2023-06-10T05:13:01;22.50;99.90
27741;DHT22;15134;48.768;9.184;2023-06-10T05:15:28;22.70;99.90
27741;DHT22;15134;48.768;9.184;2023-06-10T05:17:56;23.00;99.90
27741;DHT22;15134;48.768;9.184;2023-06-10T05:20:23;23.20;99.90
27741;DHT22;15134;48.768;9.184;2023-06-10T05:22:50;23.40;99.90
27741;DHT22;15134;48.768;9.184;2023-06-10T05:25:16;23.70;99.90
27741;DHT22;15134;48.768;9.184;2023-06-10T05:27:42;23.90;99.90
27741;DHT22;15134;48.768;9.184;2023-06-10T05:30:10;24.10;99.90
27741;DHT22;15134;48.768;9.184;2023-06-10T05:32:35;24.30;99.90
27741;DHT22;15134;48.768;9.184;2023-06-10T05:35:01;24.60;99.90
27741;DHT22;15134;48.768;9.184;2023-06-10T05:37:29;24.80;99.90
27741;DHT22;15134;48.768;9.184;2023-06-10T05:39:55;25.00;99.90
27741;DHT22;15134;48.768;9.184;2023-06-10T05:42:20;25.30;99.90
27741;DHT22;15134;48.768;9.184;2023-06-10T05:44:46;25.60;99.90
27741;DHT22;15134;48.768;9.184;2023-06-10T05:47:12;25.80;99.90
27741;DHT22;15134;48.768;9.184;2023-06-10T05:49:37;26.10;99.90
27741;DHT22;15134;48.768;9.184;2023-06-10T05:52:03;26.40;99.40
27741;DHT22;15134;48.768;9.184;2023-06-10T05:54:29;26.70;99.30
27741;DHT22;15134;48.768;9.184;2023-06-10T05:56:55;27.30;98.50
27741;DHT22;15134;48.768;9.184;2023-06-10T05:59:21;28.00;97.70
27741;DHT22;15134;48.768;9.184;2023-06-10T06:01:50;28.60;96.60
27741;DHT22;15134;48.768;9.184;2023-06-10T06:04:19;29.30;95.70
27741;DHT22;15134;48.768;9.184;2023-06-10T06:06:45;30.10;95.20
27741;DHT22;15134;48.768;9.184;2023-06-10T06:09:11;30.80;94.00
27741;DHT22;15134;48.768;9.184;2023-06-10T06:11:36;31.50;92.50
27741;DHT22;15134;48.768;9.184;2023-06-10T06:14:02;32.20;91.80
27741;DHT22;15134;48.768;9.184;2023-06-10T06:16:30;32.90;90.50
27741;DHT22;15134;48.768;9.184;2023-06-10T06:18:56;33.50;87.70
27741;DHT22;15134;48.768;9.184;2023-06-10T06:21:31;34.10;86.50
27741;DHT22;15134;48.768;9.184;2023-06-10T06:23:57;34.80;84.50
27741;DHT22;15134;48.768;9.184;2023-06-10T06:26:23;35.20;82.70
27741;DHT22;15134;48.768;9.184;2023-06-10T06:28:49;35.60;81.00
27741;DHT22;15134;48.768;9.184;2023-06-10T06:31:14;36.10;79.90
27741;DHT22;15134;48.768;9.184;2023-06-10T06:33:41;36.50;77.20
27741;DHT22;15134;48.768;9.184;2023-06-10T06:36:06;37.00;76.20
27741;DHT22;15134;48.768;9.184;2023-06-10T06:38:32;37.50;74.60
27741;DHT22;15134;48.768;9.184;2023-06-10T06:40:59;37.90;73.70
27741;DHT22;15134;48.768;9.184;2023-06-10T06:43:29;38.40;72.50
27741;DHT22;15134;48.768;9.184;2023-06-10T06:46:14;38.90;71.10
27741;DHT22;15134;48.768;9.184;2023-06-10T06:48:41;39.40;69.20
27741;DHT22;15134;48.768;9.184;2023-06-10T06:51:07;39.80;68.10
27741;DHT22;15134;48.768;9.184;2023-06-10T06:53:32;40.10;67.90
27741;DHT22;15134;48.768;9.184;2023-06-10T06:56:00;40.50;66.30
27741;DHT22;15134;48.768;9.184;2023-06-10T06:58:26;40.70;66.20
27741;DHT22;15134;48.768;9.184;2023-06-10T07:00:52;40.80;64.40
27741;DHT22;15134;48.768;9.184;2023-06-10T07:03:17;41.10;64.70
27741;DHT22;15134;48.768;9.184;2023-06-10T07:05:45;41.60;63.80
27741;DHT22;15134;48.768;9.184;2023-06-10T07:08:11;41.70;63.10
27741;DHT22;15134;48.768;9.184;2023-06-10T07:10:37;41.80;63.20
27741;DHT22;15134;48.768;9.184;2023-06-10T07:13:03;42.10;62.90
27741;DHT22;15134;48.768;9.184;2023-06-10T07:15:29;42.40;61.40
27741;DHT22;15134;48.768;9.184;2023-06-10T07:17:55;42.70;61.30
27741;DHT22;15134;48.768;9.184;2023-06-10T07:20:21;42.70;60.50
27741;DHT22;15134;48.768;9.184;2023-06-10T07:22:46;43.20;60.40
27741;DHT22;15134;48.768;9.184;2023-06-10T07:25:12;43.70;59.10
27741;DHT22;15134;48.768;9.184;2023-06-10T07:27:38;43.90;58.40
27741;DHT22;15134;48.768;9.184;2023-06-10T07:30:05;43.90;58.40
27741;DHT22;15134;48.768;9.184;2023-06-10T07:32:37;44.10;58.90
27741;DHT22;15134;48.768;9.184;2023-06-10T07:35:03;44.10;57.90
27741;DHT22;15134;48.768;9.184;2023-06-10T07:37:29;44.20;57.60
27741;DHT22;15134;48.768;9.184;2023-06-10T07:39:55;44.60;57.10
27741;DHT22;15134;48.768;9.184;2023-06-10T07:42:21;44.70;56.50
27741;DHT22;15134;48.768;9.184;2023-06-10T07:44:47;44.90;56.40
27741;DHT22;15134;48.768;9.184;2023-06-10T07:47:19;45.10;56.30
27741;DHT22;15134;48.768;9.184;2023-06-10T07:49:45;45.60;56.10
27741;DHT22;15134;48.768;9.184;2023-06-10T07:52:12;46.60;55.40
27741;DHT22;15134;48.768;9.184;2023-06-10T07:54:38;46.20;54.40
27741;DHT22;15134;48.768;9.184;2023-06-10T07:57:04;46.20;54.20
27741;DHT22;15134;48.768;9.184;2023-06-10T07:59:30;45.90;54.70
27741;DHT22;15134;48.768;9.184;2023-06-10T08:01:56;46.30;54.60
27741;DHT22;15134;48.768;9.184;2023-06-10T08:04:24;45.90;54.60
27741;DHT22;15134;48.768;9.184;2023-06-10T08:06:50;45.80;54.40
27741;DHT22;15134;48.768;9.184;2023-06-10T08:09:16;45.30;54.90
27741;DHT22;15134;48.768;9.184;2023-06-10T08:11:46;45.50;54.60
27741;DHT22;15134;48.768;9.184;2023-06-10T08:14:13;45.40;54.70
27741;DHT22;15134;48.768;9.184;2023-06-10T08:16:39;45.00;55.10
27741;DHT22;15134;48.768;9.184;2023-06-10T08:19:10;45.20;54.60
27741;DHT22;15134;48.768;9.184;2023-06-10T08:21:36;45.70;53.80
27741;DHT22;15134;48.768;9.184;2023-06-10T08:24:03;46.10;53.30
27741;DHT22;15134;48.768;9.184;2023-06-10T08:26:29;46.20;53.10
27741;DHT22;15134;48.768;9.184;2023-06-10T08:28:56;46.70;52.70
27741;DHT22;15134;48.768;9.184;2023-06-10T08:31:22;47.00;52.50
27741;DHT22;15134;48.768;9.184;2023-06-10T08:33:48;47.00;52.50
27741;DHT22;15134;48.768;9.184;2023-06-10T08:36:13;47.00;52.20
27741;DHT22;15134;48.768;9.184;2023-06-10T08:38:40;46.10;52.90
27741;DHT22;15134;48.768;9.184;2023-06-10T08:41:07;45.70;53.50
27741;DHT22;15134;48.768;9.184;2023-06-10T08:46:35;46.20;53.10
27741;DHT22;15134;48.768;9.184;2023-06-10T08:49:06;46.70;52.10
27741;DHT22;15134;48.768;9.184;2023-06-10T08:51:35;46.90;51.50
27741;DHT22;15134;48.768;9.184;2023-06-10T08:54:06;46.40;51.70
27741;DHT22;15134;48.768;9.184;2023-06-10T08:56:39;46.50;51.90
27741;DHT22;15134;48.768;9.184;2023-06-10T08:59:05;46.50;51.20
27741;DHT22;15134;48.768;9.184;2023-06-10T09:01:31;45.90;51.70
27741;DHT22;15134;48.768;9.184;2023-06-10T09:03:59;44.20;53.50
27741;DHT22;15134;48.768;9.184;2023-06-10T09:06:25;43.10;54.50
27741;DHT22;15134;48.768;9.184;2023-06-10T09:08:52;42.70;55.20
27741;DHT22;15134;48.768;9.184;2023-06-10T09:11:20;42.70;55.00
27741;DHT22;15134;48.768;9.184;2023-06-10T09:13:48;42.20;55.40
27741;DHT22;15134;48.768;9.184;2023-06-10T09:16:17;41.90;55.50
27741;DHT22;15134;48.768;9.184;2023-06-10T09:18:43;41.30;56.60
27741;DHT22;15134;48.768;9.184;2023-06-10T09:21:10;40.30;57.30
27741;DHT22;15134;48.768;9.184;2023-06-10T09:26:08;39.40;58.70
27741;DHT22;15134;48.768;9.184;2023-06-10T09:28:39;38.90;59.20
27741;DHT22;15134;48.768;9.184;2023-06-10T09:31:06;38.10;60.40
27741;DHT22;15134;48.768;9.184;2023-06-10T09:33:33;38.60;60.30
27741;DHT22;15134;48.768;9.184;2023-06-10T09:36:02;39.30;59.50
27741;DHT22;15134;48.768;9.184;2023-06-10T09:38:34;39.90;58.90
27741;DHT22;15134;48.768;9.184;2023-06-10T09:41:00;40.30;58.40
27741;DHT22;15134;48.768;9.184;2023-06-10T09:43:43;40.70;57.90
27741;DHT22;15134;48.768;9.184;2023-06-10T09:46:18;41.40;57.20
27741;DHT22;15134;48.768;9.184;2023-06-10T09:48:46;41.40;56.80
27741;DHT22;15134;48.768;9.184;2023-06-10T09:51:13;41.40;57.20
27741;DHT22;15134;48.768;9.184;2023-06-10T09:53:39;40.20;57.30
27741;DHT22;15134;48.768;9.184;2023-06-10T09:56:06;38.70;58.60
27741;DHT22;15134;48.768;9.184;2023-06-10T09:58:38;36.80;60.30
27741;DHT22;15134;48.768;9.184;2023-06-10T10:01:12;35.20;64.20
27741;DHT22;15134;48.768;9.184;2023-06-10T10:03:49;33.90;66.60
27741;DHT22;15134;48.768;9.184;2023-06-10T10:06:19;32.60;69.20
27741;DHT22;15134;48.768;9.184;2023-06-10T10:08:47;31.70;71.10
27741;DHT22;15134;48.768;9.184;2023-06-10T10:11:17;30.70;73.10
27741;DHT22;15134;48.768;9.184;2023-06-10T10:13:45;30.00;75.90
27741;DHT22;15134;48.768;9.184;2023-06-10T10:16:16;29.60;77.20
27741;DHT22;15134;48.768;9.184;2023-06-10T10:21:25;29.30;77.30
27741;DHT22;15134;48.768;9.184;2023-06-10T10:24:14;29.30;78.00
27741;DHT22;15134;48.768;9.184;2023-06-10T10:26:43;29.40;78.30
27741;DHT22;15134;48.768;9.184;2023-06-10T10:29:19;29.40;78.00
27741;DHT22;15134;48.768;9.184;2023-06-10T10:31:50;29.20;77.90
27741;DHT22;15134;48.768;9.184;2023-06-10T10:34:35;29.00;78.80
27741;DHT22;15134;48.768;9.184;2023-06-10T10:37:01;28.70;79.00
27741;DHT22;15134;48.768;9.184;2023-06-10T10:39:27;28.60;79.70
27741;DHT22;15134;48.768;9.184;2023-06-10T10:41:55;28.60;80.50
27741;DHT22;15134;48.768;9.184;2023-06-10T10:44:21;28.70;80.90
27741;DHT22;15134;48.768;9.184;2023-06-10T10:46:51;28.80;80.90
27741;DHT22;15134;48.768;9.184;2023-06-10T10:49:22;28.80;79.80
27741;DHT22;15134;48.768;9.184;2023-06-10T10:51:58;28.70;79.60
27741;DHT22;15134;48.768;9.184;2023-06-10T10:54:28;28.60;79.30
27741;DHT22;15134;48.768;9.184;2023-06-10T10:57:17;28.60;78.90
27741;DHT22;15134;48.768;9.184;2023-06-10T10:59:58;28.80;79.30
27741;DHT22;15134;48.768;9.184;2023-06-10T11:02:40;28.90;78.90
27741;DHT22;15134;48.768;9.184;2023-06-10T11:05:16;28.90;79.10
27741;DHT22;15134;48.768;9.184;2023-06-10T11:07:53;28.80;77.90
27741;DHT22;15134;48.768;9.184;2023-06-10T11:10:32;28.70;78.30
27741;DHT22;15134;48.768;9.184;2023-06-10T11:12:59;28.80;79.40
27741;DHT22;15134;48.768;9.184;2023-06-10T11:15:30;28.60;80.00
27741;DHT22;15134;48.768;9.184;2023-06-10T11:18:28;28.40;80.60
27741;DHT22;15134;48.768;9.184;2023-06-10T11:20:59;28.20;81.10
27741;DHT22;15134;48.768;9.184;2023-06-10T11:29:11;28.30;81.70
27741;DHT22;15134;48.768;9.184;2023-06-10T11:31:50;28.20;80.40
27741;DHT22;15134;48.768;9.184;2023-06-10T11:34:24;28.10;82.00
27741;DHT22;15134;48.768;9.184;2023-06-10T11:36:51;28.10;83.00
27741;DHT22;15134;48.768;9.184;2023-06-10T11:39:18;28.20;81.70
27741;DHT22;15134;48.768;9.184;2023-06-10T11:41:45;28.20;80.90
27741;DHT22;15134;48.768;9.184;2023-06-10T11:44:14;28.10;81.50
27741;DHT22;15134;48.768;9.184;2023-06-10T11:46:47;28.10;81.30
27741;DHT22;15134;48.768;9.184;2023-06-10T11:49:14;28.10;81.20
27741;DHT22;15134;48.768;9.184;2023-06-10T11:51:41;28.10;81.90
27741;DHT22;15134;48.768;9.184;2023-06-10T11:54:14;28.10;80.80
27741;DHT22;15134;48.768;9.184;2023-06-10T11:56:43;28.00;81.10
27741;DHT22;15134;48.768;9.184;2023-06-10T11:59:12;28.20;81.30
27741;DHT22;15134;48.768;9.184;2023-06-10T12:01:45;28.20;81.00
27741;DHT22;15134;48.768;9.184;2023-06-10T12:04:15;28.10;81.70
27741;DHT22;15134;48.768;9.184;2023-06-10T12:06:49;28.00;81.20
27741;DHT22;15134;48.768;9.184;2023-06-10T12:09:29;28.10;81.60
27741;DHT22;15134;48.768;9.184;2023-06-10T12:12:03;28.10;82.60
27741;DHT22;15134;48.768;9.184;2023-06-10T12:14:56;28.30;81.60
27741;DHT22;15134;48.768;9.184;2023-06-10T12:20:01;28.50;81.30
27741;DHT22;15134;48.768;9.184;2023-06-10T12:22:43;28.60;80.60
27741;DHT22;15134;48.768;9.184;2023-06-10T12:25:15;28.70;80.70
27741;DHT22;15134;48.768;9.184;2023-06-10T12:27:50;28.70;80.60
27741;DHT22;15134;48.768;9.184;2023-06-10T12:30:25;28.60;80.40
27741;DHT22;15134;48.768;9.184;2023-06-10T12:32:55;28.40;80.20
27741;DHT22;15134;48.768;9.184;2023-06-10T12:35:27;28.20;81.30
27741;DHT22;15134;48.768;9.184;2023-06-10T12:38:06;28.10;80.00
27741;DHT22;15134;48.768;9.184;2023-06-10T12:40:42;27.90;79.60
27741;DHT22;15134;48.768;9.184;2023-06-10T12:43:09;27.70;80.50
27741;DHT22;15134;48.768;9.184;2023-06-10T12:45:37;27.60;81.80
27741;DHT22;15134;48.768;9.184;2023-06-10T12:48:17;27.60;81.20
27741;DHT22;15134;48.768;9.184;2023-06-10T12:50:44;27.50;81.30
27741;DHT22;15134;48.768;9.184;2023-06-10T12:53:11;27.50;81.70
27741;DHT22;15134;48.768;9.184;2023-06-10T12:55:37;27.40;81.60
27741;DHT22;15134;48.768;9.184;2023-06-10T12:58:04;27.40;81.80
27741;DHT22;15134;48.768;9.184;2023-06-10T13:00:30;27.50;81.20
27741;DHT22;15134;48.768;9.184;2023-06-10T13:03:03;27.60;81.90
27741;DHT22;15134;48.768;9.184;2023-06-10T13:05:31;27.60;81.10
27741;DHT22;15134;48.768;9.184;2023-06-10T13:07:58;27.70;81.20
27741;DHT22;15134;48.768;9.184;2023-06-10T13:10:23;27.70;81.30
27741;DHT22;15134;48.768;9.184;2023-06-10T13:12:50;27.60;81.30
27741;DHT22;15134;48.768;9.184;2023-06-10T13:15:22;27.60;81.50
27741;DHT22;15134;48.768;9.184;2023-06-10T13:17:48;27.80;81.10
27741;DHT22;15134;48.768;9.184;2023-06-10T13:20:23;27.90;81.50
27741;DHT22;15134;48.768;9.184;2023-06-10T13:22:48;27.90;80.70
27741;DHT22;15134;48.768;9.184;2023-06-10T13:25:15;27.80;81.10
27741;DHT22;15134;48.768;9.184;2023-06-10T13:27:40;27.70;81.60
27741;DHT22;15134;48.768;9.184;2023-06-10T13:30:10;27.60;82.10
27741;DHT22;15134;48.768;9.184;2023-06-10T13:32:40;27.60;81.60
27741;DHT22;15134;48.768;9.184;2023-06-10T13:35:06;27.70;81.90
27741;DHT22;15134;48.768;9.184;2023-06-10T13:37:36;27.70;80.80
27741;DHT22;15134;48.768;9.184;2023-06-10T13:40:02;27.80;79.90
27741;DHT22;15134;48.768;9.184;2023-06-10T13:42:28;28.00;80.20
27741;DHT22;15134;48.768;9.184;2023-06-10T13:44:57;28.00;79.80
27741;DHT22;15134;48.768;9.184;2023-06-10T13:47:23;28.10;80.70
27741;DHT22;15134;48.768;9.184;2023-06-10T13:49:49;28.10;79.80
27741;DHT22;15134;48.768;9.184;2023-06-10T13:52:15;28.00;80.00
27741;DHT22;15134;48.768;9.184;2023-06-10T13:54:41;27.80;80.30
27741;DHT22;15134;48.768;9.184;2023-06-10T13:57:10;27.60;81.00
27741;DHT22;15134;48.768;9.184;2023-06-10T13:59:36;27.50;81.20
27741;DHT22;15134;48.768;9.184;2023-06-10T14:02:02;27.30;81.60
27741;DHT22;15134;48.768;9.184;2023-06-10T14:04:27;27.20;81.00
27741;DHT22;15134;48.768;9.184;2023-06-10T14:06:59;27.20;80.80
27741;DHT22;15134;48.768;9.184;2023-06-10T14:09:25;27.30;80.80
27741;DHT22;15134;48.768;9.184;2023-06-10T14:11:51;27.50;81.00
27741;DHT22;15134;48.768;9.184;2023-06-10T14:14:17;27.60;80.40
27741;DHT22;15134;48.768;9.184;2023-06-10T14:16:45;27.80;80.50
27741;DHT22;15134;48.768;9.184;2023-06-10T14:19:10;27.90;81.00
27741;DHT22;15134;48.768;9.184;2023-06-10T14:21:36;28.00;81.10
27741;DHT22;15134;48.768;9.184;2023-06-10T14:24:02;28.10;80.10
27741;DHT22;15134;48.768;9.184;2023-06-10T14:26:28;28.00;79.60
27741;DHT22;15134;48.768;9.184;2023-06-10T14:28:54;27.80;80.20
27741;DHT22;15134;48.768;9.184;2023-06-10T14:31:21;27.80;80.80
27741;DHT22;15134;48.768;9.184;2023-06-10T14:33:46;27.60;80.80
27741;DHT22;15134;48.768;9.184;2023-06-10T14:36:12;27.50;79.90
27741;DHT22;15134;48.768;9.184;2023-06-10T14:38:38;27.40;81.00
27741;DHT22;15134;48.768;9.184;2023-06-10T14:41:04;27.40;81.30
27741;DHT22;15134;48.768;9.184;2023-06-10T14:43:29;27.50;80.30
27741;DHT22;15134;48.768;9.184;2023-06-10T14:45:55;27.60;80.20
27741;DHT22;15134;48.768;9.184;2023-06-10T14:48:24;27.60;79.60
27741;DHT22;15134;48.768;9.184;2023-06-10T14:50:50;27.70;80.40
27741;DHT22;15134;48.768;9.184;2023-06-10T14:53:17;27.60;80.80
27741;DHT22;15134;48.768;9.184;2023-06-10T14:55:43;27.50;81.40
27741;DHT22;15134;48.768;9.184;2023-06-10T14:58:09;27.40;81.60
27741;DHT22;15134;48.768;9.184;2023-06-10T15:00:35;27.20;82.10
27741;DHT22;15134;48.768;9.184;2023-06-10T15:03:00;27.10;82.30
27741;DHT22;15134;48.768;9.184;2023-06-10T15:05:26;27.00;83.00
27741;DHT22;15134;48.768;9.184;2023-06-10T15:07:52;26.80;82.90
27741;DHT22;15134;48.768;9.184;2023-06-10T15:10:18;26.80;83.10
27741;DHT22;15134;48.768;9.184;2023-06-10T15:12:45;26.80;82.90
27741;DHT22;15134;48.768;9.184;2023-06-10T15:15:11;26.90;83.10
27741;DHT22;15134;48.768;9.184;2023-06-10T15:17:37;26.90;82.60
27741;DHT22;15134;48.768;9.184;2023-06-10T15:20:03;26.90;83.10
27741;DHT22;15134;48.768;9.184;2023-06-10T15:22:29;26.90;82.80
27741;DHT22;15134;48.768;9.184;2023-06-10T15:24:57;27.00;83.10
27741;DHT22;15134;48.768;9.184;2023-06-10T15:27:23;27.00;83.40
27741;DHT22;15134;48.768;9.184;2023-06-10T15:29:49;27.00;83.30
27741;DHT22;15134;48.768;9.184;2023-06-10T15:32:14;27.00;83.40
27741;DHT22;15134;48.768;9.184;2023-06-10T15:34:40;27.00;83.50
27741;DHT22;15134;48.768;9.184;2023-06-10T15:37:09;27.10;83.20
27741;DHT22;15134;48.768;9.184;2023-06-10T15:39:35;27.20;83.10
27741;DHT22;15134;48.768;9.184;2023-06-10T15:42:01;27.20;81.10
27741;DHT22;15134;48.768;9.184;2023-06-10T15:44:27;27.20;81.10
27741;DHT22;15134;48.768;9.184;2023-06-10T15:46:52;27.20;82.00
27741;DHT22;15134;48.768;9.184;2023-06-10T15:49:18;27.20;82.20
27741;DHT22;15134;48.768;9.184;2023-06-10T15:51:45;27.30;81.40
27741;DHT22;15134;48.768;9.184;2023-06-10T15:54:11;27.30;81.90
27741;DHT22;15134;48.768;9.184;2023-06-10T15:56:36;27.30;82.20
27741;DHT22;15134;48.768;9.184;2023-06-10T15:59:05;27.30;83.00